Atlas, Illinois
Current Conditions -  °F | °C
As of 6:35 PM on Saturday 22 Nov 2014 (Local Time) from KPPQ Reporting Station
Broken Clouds Broken Clouds  
Wind Chill: 54°   Ceiling: 9000
Heat Index: 54°   Visibility: 10mi
Dew Point: 48°   Wind: 9mph
Humidity: 80%   Direction: 190°S
Pressure: 29.9"   Gusts: NA
Location:  39.5365°N, 91.0118°W
Report Text: KPPQ 230035Z AUTO 19008KT 10SM SCT060 BKN090 12/09 A2990 RMK AO2 T01220088 PWINO
Loading
Personal Weather Stations






























Interactive Weather Map New forecast layout! Learn more

10-Day Weather Forecast

Advertisements
Track Severe Weather on mobile